Jepson Prairie Reserve, California Weather observations

Data are for 10 minute period ending at time listed.
 Day   Time   Solar   Ave.   Ave.  Ave.  Vector  Max.   Baro.   Total    
  of    of     Rad.   Air    Rel.  Wind   Wind   Wind  Press.  Precip.   
Year   Day            Temp.  Hum.  Speed  Dir.   Gust                    
2017   (PST)  Kw/m2    F      %     mph   deg.    mph    mb.     in.     
-------------------------------------------------------------------------
 263   17:10   0.03   67.6    56   23.9   218    32.0   1007.5    0.00 
 263   17:20   0.03   67.4    57   21.5   216    28.0   1007.5    0.00 
 263   17:30   0.02   67.2    55   23.4   223    30.5   1007.5    0.00 
 263   17:40   0.01   67.0    53   25.4   225    32.2   1007.5    0.00 
 263   17:50   0.01   66.4    52   23.5   225    30.5   1007.5    0.00 
 263   18:00   0.00   66.0    52   20.5   221    26.6   1007.5    0.00 
 263   18:10   0.00   65.6    53   17.9   216    24.2   1007.5    0.00 
 263   18:20   0.00   65.5    52   19.3   214    25.9   1007.5    0.00 
 263   18:30   0.00   65.4    51   18.0   221    26.1   1007.5    0.00 
 263   18:40   0.00   65.2    52   19.1   220    24.3   1007.1    0.00 
 263   18:50   0.00   65.0    52   20.3   216    25.8   1007.1    0.00 
 263   19:00   0.00   64.7    52   19.0   215    23.3   1007.1    0.00 
 263   19:10   0.00   64.6    52   17.6   219    23.4   1007.5    0.00 
 263   19:20   0.00   64.1    54   19.7   231    25.3   1007.5    0.00 
 263   19:30   0.00   63.5    58   18.1   227    22.9   1007.5    0.00 
 263   19:40   0.00   63.0    60   15.8   219    21.0   1007.5    0.00 
 263   19:50   0.00   62.7    61   18.0   217    23.3   1007.5    0.00 
 263   20:00   0.00   62.6    62   18.0   219    24.2   1007.5    0.00 
 263   20:10   0.00   62.3    62   17.1   224    23.8   1007.5    0.00 
 263   20:20   0.00   62.2    63   17.8   218    23.9   1007.1    0.00 
 263   20:30   0.00   62.2    63   17.4   215    23.2   1007.1    0.00 
 263   20:40   0.00   62.0    64   17.7   216    23.2   1007.1    0.00 
 263   20:50   0.00   61.9    64   18.7   218    23.2   1007.1    0.00 
 263   21:00   0.00   61.7    65   18.2   222    24.5   1007.1    0.00 
 263   21:10   0.00   61.6    66   18.7   217    23.5   1007.1    0.00 
 263   21:20   0.00   61.5    66   19.6   213    25.3   1006.8    0.00 
 263   21:30   0.00   61.3    66   19.9   215    23.6   1007.1    0.00 
 263   21:40   0.00   61.2    66   18.7   219    24.6   1007.1    0.00 
 263   21:50   0.00   60.8    66   17.9   224    22.8   1007.1    0.00 
 263   22:00   0.00   60.4    65   16.8   225    20.5   1007.1    0.00 
 263   22:10   0.00   59.6    66   16.4   221    20.0   1007.1    0.00 
 263   22:20   0.00   59.0    67   18.2   217    22.3   1007.1    0.00 
 263   22:30   0.00   58.4    69   17.7   216    20.8   1007.5    0.00 
 263   22:40   0.00   57.8    70   16.4   219    20.5   1007.5    0.00 
 263   22:50   0.00   57.1    71   14.1   218    17.8   1007.5    0.00 
 263   23:00   0.00   56.8    72   17.2   220    20.9   1007.5    0.00 
 263   23:10   0.00   56.8    71   18.9   221    23.2   1007.5    0.00 
 263   23:20   0.00   56.8    71   17.9   222    22.6   1007.5    0.00 
 263   23:30   0.00   56.4    72   15.9   223    20.8   1007.5    0.00 
 263   23:40   0.00   56.4    73   16.9   221    21.4   1007.5    0.00 
 263   23:50   0.00   56.1    73   14.5   220    18.8   1007.5    0.00 
 264    0:00   0.00   55.8    73   14.5   220    17.7   1007.5    0.00 
 264    0:10   0.00   55.2    74   12.3   213    17.0   1007.5    0.00 
 264    0:20   0.00   54.8    74   12.8   210    16.0   1007.5    0.00 
 264    0:30   0.00   54.2    75   12.4   203    14.4   1007.5    0.00 
 264    0:40   0.00   53.9    74   11.6   204    14.4   1007.5    0.00 
 264    0:50   0.00   53.3    74   11.5   209    13.2   1007.5    0.00 
 264    1:00   0.00   53.1    75   11.2   213    13.2   1007.5    0.00 
 264    1:10   0.00   52.5    76   10.1   210    12.2   1007.5    0.00 
 264    1:20   0.00   52.8    76   11.2   210    13.2   1007.5    0.00 
 264    1:30   0.00   52.7    75   11.6   206    13.8   1007.5    0.00 
 264    1:40   0.00   52.4    75   11.5   205    13.7   1007.5    0.00 
 264    1:50   0.00   52.3    75   10.7   208    12.6   1007.5    0.00 
 264    2:00   0.00   52.2    74   10.9   208    12.3   1007.5    0.00 
 264    2:10   0.00   51.8    74   11.0   206    12.9   1007.1    0.00 
 264    2:20   0.00   51.5    75   10.3   211    11.5   1007.5    0.00 
 264    2:30   0.00   51.4    76   10.7   214    12.1   1007.5    0.00 
 264    2:40   0.00   51.5    75   10.2   214    12.5   1007.5    0.00 
 264    2:50   0.00   51.2    76   10.2   212    11.2   1007.5    0.00 
 264    3:00   0.00   50.7    77   10.0   208    11.3   1007.5    0.00 
 264    3:10   0.00   50.5    77   11.1   208    13.0   1007.5    0.00 
 264    3:20   0.00   50.8    77   11.1   210    12.9   1007.5    0.00 
 264    3:30   0.00   50.5    77    9.9   204    11.7   1007.5    0.00 
 264    3:40   0.00   49.8    78   10.4   202    11.8   1007.5    0.00 
 264    3:50   0.00   49.7    78   10.5   202    11.8   1007.5    0.00 
 264    4:00   0.00   50.0    78   11.3   205    12.5   1007.5    0.00 
 264    4:10   0.00   50.3    78   10.6   204    11.8   1007.5    0.00 
 264    4:20   0.00   49.9    78    9.0   195    11.2   1007.1    0.00 
 264    4:30   0.00   49.2    80    8.3   195     9.6   1007.5    0.00 
 264    4:40   0.00   48.8    80    8.2   196    10.5   1007.5    0.00 
 264    4:50   0.00   49.0    81    7.7   190     9.9   1007.5    0.00 
 264    5:00   0.00   48.9    82    8.1   187     9.9   1007.8    0.00 
 264    5:10   0.00   49.1    83    7.8   195    10.4   1007.8    0.00 
 264    5:20   0.00   49.7    81    7.6   201    11.0   1007.8    0.00 
 264    5:30   0.00   49.4    81    7.7   198     9.4   1007.8    0.00 
 264    5:40   0.00   48.4    82    7.6   201     8.6   1008.1    0.00 
 264    5:50   0.00   48.1    83    7.8   205     9.3   1008.1    0.00 
 264    6:00   0.00   48.7    84    8.3   208     9.9   1008.5    0.00 
 264    6:10   0.01   49.1    84    8.2   202     9.3   1008.5    0.00 
 264    6:20   0.02   49.3    84    8.9   202     9.9   1008.5    0.00 
 264    6:30   0.03   49.4    84    8.4   207    10.1   1008.5    0.00 
 264    6:40   0.04   50.0    84    8.3   204    10.7   1008.5    0.00 
 264    6:50   0.05   50.7    82    9.0   197    11.7   1008.5    0.00 
 264    7:00   0.05   51.0    80    7.9   191     9.3   1008.8    0.00 
 264    7:10   0.04   51.0    79    7.3   192     8.5   1008.8    0.00 
 264    7:20   0.06   51.2    79    8.2   195     9.8   1008.8    0.00 
 264    7:30   0.23   53.4    76    8.4   198    11.2   1008.8    0.00 
 264    7:40   0.26   55.9    69   10.2   205    11.9   1008.8    0.00 
 264    7:50   0.29   57.1    64   10.1   212    12.8   1008.8    0.00 
 264    8:00   0.32   58.5    60   10.6   215    13.4   1008.8    0.00 
 264    8:10   0.35   59.8    55    9.1   221    11.7   1009.1    0.00 
 264    8:20   0.38   61.0    52    8.6   222    11.0   1009.1    0.00 
 264    8:30   0.41   61.5    50    7.5   217     9.6   1009.1    0.00 
 264    8:40   0.44   62.5    48    6.1   214     8.4   1009.1    0.00 
 264    8:50   0.47   63.2    46    5.2   225     9.1   1009.5    0.00 
 264    9:00   0.50   63.8    45    4.7   229     8.5   1009.5    0.00 
 264    9:10   0.52   64.5    44    4.2   223     8.9   1009.8    0.00 
 264    9:20   0.55   65.5    42    5.3   204     8.1   1009.8    0.00 
 264    9:30   0.58   65.3    41    3.4   203     8.2   1009.8    0.00 
 264    9:40   0.61   65.7    40    5.7   226     9.2   1009.8    0.00 
 264    9:50   0.66   66.2    39    4.5   147    11.0   1009.8    0.00 
 264   10:00   0.69   67.0    38    5.7   187    11.0   1009.8    0.00 
 264   10:10   0.55   67.2    38    6.1   206    11.2   1009.8    0.00 
 264   10:20   0.54   66.1    40    7.2   220    11.5   1010.2    0.00 
 264   10:30   0.55   66.1    40    7.2   212    11.6   1010.2    0.00 
 264   10:40   0.67   67.0    39    6.3   194    11.3   1010.2    0.00 
 264   10:50   0.71   68.1    37    6.6   237    11.1   1010.2    0.00 
 264   11:00   0.74   67.3    39    8.4   206    13.9   1010.2    0.00 
 264   11:10   0.79   68.2    38    9.4   170    20.1   1010.2    0.00 
 264   11:20   0.76   68.1    38    8.9   204    17.4   1009.8    0.00 
 264   11:30   0.77   68.3    38    9.6   211    14.4   1009.8    0.00 
 264   11:40   0.77   68.1    38    7.3   208    13.4   1009.8    0.00 
 264   11:50   0.77   68.8    37    9.4   209    15.1   1009.8    0.00 
 264   12:00   0.76   68.7    36    9.1   202    18.3   1009.8    0.00 
 264   12:10   0.76   68.8    36    7.7   192    14.4   1009.8    0.00 
 264   12:20   0.76   70.1    34    5.4   195    15.3   1009.5    0.00 
 264   12:30   0.76   69.3    35    5.3   236    12.6   1009.5    0.00 
 264   12:40   0.76   69.5    35    5.0   235    10.6   1009.5    0.00 
 264   12:50   0.76   69.9    34    3.6   119    11.8   1009.1    0.00 
 264   13:00   0.74   70.3    33    6.5   181    12.1   1009.1    0.00 
 264   13:10   0.73   70.4    33    7.6   199    14.0   1009.1    0.00 
 264   13:20   0.72   70.4    33    6.8   215    14.4   1008.8    0.00 
 264   13:30   0.70   71.3    32    9.2   198    15.6   1008.8    0.00 
 264   13:40   0.68   71.5    32    5.1   178    12.3   1008.8    0.00 
 264   13:50   0.67   71.0    32    8.8   220    15.9   1008.8    0.00 
 264   14:00   0.65   71.1    32    4.1   242     9.4   1008.8    0.00 
 264   14:10   0.63   71.5    31    6.7   227    12.6   1008.5    0.00 
 264   14:20   0.61   71.2    32    6.3   173    11.6   1008.8    0.00 
 264   14:30   0.49   71.3    31    4.8   181    11.8   1008.5    0.00 
 264   14:40   0.45   71.4    31    7.2   188    13.3   1008.5    0.00 
 264   14:50   0.52   71.2    32    5.9   170    11.1   1008.5    0.00 
 264   15:00   0.61   72.6    30   10.7   182    15.6   1008.5    0.00 
 264   15:10   0.56   72.4    31   11.1   180    16.4   1008.5    0.00 
 264   15:20   0.10   70.4    35    8.8   196    14.2   1008.5    0.00 
 264   15:30   0.41   71.1    34   12.4   180    16.7   1008.1    0.00 
 264   15:40   0.48   72.4    33   13.2   201    22.4   1008.5    0.00 
 264   15:50   0.40   71.5    34   14.9   217    20.8   1008.5    0.00 
 264   16:00   0.35   71.2    35   15.9   205    20.1   1008.5    0.00 
 264   16:10   0.31   70.8    35   13.8   204    20.0   1008.5    0.00 
 264   16:20   0.28   70.7    35   14.3   209    19.2   1008.8    0.00 
 264   16:30   0.24   70.1    36   15.3   207    21.2   1008.8    0.00 
 264   16:40   0.21   69.4    38   16.3   203    20.8   1008.8    0.00 
 264   16:50   0.18   69.4    37   14.0   202    18.2   1008.8    0.00 
 264   17:00   0.15   69.0    38   14.6   209    18.4   1008.8    0.00 

Return to Jepson Prairie Reserve graphs page.


Western Regional Climate Center,wrcc@dri.edu